createdAt,value
2016-12-20T00:00:52.575Z,1010.18
2016-12-20T00:01:52.586Z,1010.21
2016-12-20T00:02:52.601Z,1010.19
2016-12-20T00:03:52.610Z,1010.21
2016-12-20T00:04:52.625Z,1010.17
2016-12-20T00:05:52.640Z,1010.16
2016-12-20T00:06:52.648Z,1010.18
2016-12-20T00:07:52.664Z,1010.17
2016-12-20T00:08:52.672Z,1010.15
2016-12-20T00:09:52.687Z,1010.15
2016-12-20T00:10:52.699Z,1010.15
2016-12-20T00:11:52.713Z,1010.13
2016-12-20T00:12:52.724Z,1010.12
2016-12-20T00:13:52.733Z,1010.06
2016-12-20T00:14:52.750Z,1010.08
2016-12-20T00:15:52.760Z,1010.12
2016-12-20T00:16:52.776Z,1010.08
2016-12-20T00:17:52.789Z,1010.09
2016-12-20T00:18:52.802Z,1010.07
2016-12-20T00:19:52.808Z,1010.07
2016-12-20T00:20:52.821Z,1010.1
2016-12-20T00:21:52.835Z,1010.07
2016-12-20T00:22:52.847Z,1010.12
2016-12-20T00:23:52.860Z,1010.07
2016-12-20T00:24:52.875Z,1010.02
2016-12-20T00:25:52.890Z,1010.01
2016-12-20T00:26:52.895Z,1009.99
2016-12-20T00:27:52.914Z,1009.98
2016-12-20T00:28:52.921Z,1009.94
2016-12-20T00:29:52.938Z,1009.92
2016-12-20T00:30:52.948Z,1009.86
2016-12-20T00:31:52.963Z,1009.92
2016-12-20T00:32:52.974Z,1009.89
2016-12-20T00:33:52.989Z,1009.91
2016-12-20T00:34:52.994Z,1009.85
2016-12-20T00:35:53.015Z,1009.9
2016-12-20T00:36:53.024Z,1009.92
2016-12-20T00:37:53.037Z,1009.96
2016-12-20T00:38:53.050Z,1009.91
2016-12-20T00:39:53.063Z,1009.9
2016-12-20T00:40:53.076Z,1009.97
2016-12-20T00:41:53.086Z,1009.94
2016-12-20T00:42:53.096Z,1009.96
2016-12-20T00:43:53.110Z,1009.98
2016-12-20T00:44:53.121Z,1010.04
2016-12-20T00:45:53.137Z,1010.03
2016-12-20T00:46:53.147Z,1010.02
2016-12-20T00:47:53.162Z,1010.03
2016-12-20T00:48:53.173Z,1010.07
2016-12-20T00:49:53.185Z,1010.09
2016-12-20T00:50:53.199Z,1010.05
2016-12-20T00:51:53.208Z,1010.1
2016-12-20T00:52:53.221Z,1010.09
2016-12-20T00:53:53.238Z,1010.09
2016-12-20T00:54:53.247Z,1010.07
2016-12-20T00:55:53.260Z,1010.07
2016-12-20T00:56:53.272Z,1010.07
2016-12-20T00:57:53.285Z,1010.04
2016-12-20T00:58:53.295Z,1010.02
2016-12-20T00:59:53.308Z,1010
2016-12-20T01:00:53.324Z,1010
2016-12-20T01:01:53.330Z,1010.01
2016-12-20T01:02:53.347Z,1010.03
2016-12-20T01:03:53.360Z,1009.98
2016-12-20T01:04:53.370Z,1009.98
2016-12-20T01:05:53.387Z,1009.91
2016-12-20T01:06:53.399Z,1009.93
2016-12-20T01:07:53.409Z,1009.95
2016-12-20T01:08:53.421Z,1009.97
2016-12-20T01:09:53.432Z,1009.95
2016-12-20T01:10:53.448Z,1009.97
2016-12-20T01:11:53.460Z,1010.03
2016-12-20T01:12:53.470Z,1009.99
2016-12-20T01:13:53.486Z,1009.99
2016-12-20T01:14:53.492Z,1009.99
2016-12-20T01:15:53.508Z,1009.95
2016-12-20T01:16:53.520Z,1009.95
2016-12-20T01:17:53.534Z,1009.96
2016-12-20T01:18:53.548Z,1009.91
2016-12-20T01:19:53.556Z,1009.92
2016-12-20T01:20:53.570Z,1009.95
2016-12-20T01:21:53.579Z,1009.93
2016-12-20T01:22:53.595Z,1009.91
2016-12-20T01:23:53.608Z,1009.92
2016-12-20T01:24:53.621Z,1009.88
2016-12-20T01:25:53.632Z,1009.92
2016-12-20T01:26:53.647Z,1009.94
2016-12-20T01:27:53.656Z,1009.95
2016-12-20T01:28:53.669Z,1009.96
2016-12-20T01:29:53.685Z,1009.97
2016-12-20T01:30:53.695Z,1009.99
2016-12-20T01:31:53.708Z,1009.96
2016-12-20T01:32:53.719Z,1009.98
2016-12-20T01:33:53.734Z,1009.99
2016-12-20T01:34:53.746Z,1009.98
2016-12-20T01:35:53.757Z,1010.04
2016-12-20T01:36:53.767Z,1010.04
2016-12-20T01:37:53.782Z,1010.07
2016-12-20T01:38:53.795Z,1010.06
2016-12-20T01:39:53.807Z,1010.12
2016-12-20T01:40:53.820Z,1010.07
2016-12-20T01:41:53.829Z,1010.07
2016-12-20T01:42:53.843Z,1010.05
2016-12-20T01:43:53.855Z,1010.05
2016-12-20T01:44:53.870Z,1010.01
2016-12-20T01:45:53.879Z,1010.04
2016-12-20T01:46:53.892Z,1009.97
2016-12-20T01:47:53.903Z,1010.01
2016-12-20T01:48:53.918Z,1009.95
2016-12-20T01:49:53.927Z,1009.96
2016-12-20T01:50:53.943Z,1009.95
2016-12-20T01:51:53.954Z,1009.96
2016-12-20T01:52:53.965Z,1009.94
2016-12-20T01:53:53.980Z,1009.98
2016-12-20T01:54:53.992Z,1009.98
2016-12-20T01:55:53.999Z,1010.03
2016-12-20T01:56:54.018Z,1010.01
2016-12-20T01:57:54.024Z,1010.01
2016-12-20T01:58:54.040Z,1010.02
2016-12-20T01:59:54.051Z,1009.99
2016-12-20T02:00:54.062Z,1010.02
2016-12-20T02:01:54.072Z,1009.95
2016-12-20T02:02:54.084Z,1009.92
2016-12-20T02:03:54.101Z,1009.9
2016-12-20T02:04:54.112Z,1009.93
2016-12-20T02:05:54.124Z,1009.93
2016-12-20T02:06:54.133Z,1009.96
2016-12-20T02:07:54.150Z,1009.9
2016-12-20T02:08:54.160Z,1009.91
2016-12-20T02:09:54.173Z,1009.85
2016-12-20T02:10:54.183Z,1009.89
2016-12-20T02:11:54.198Z,1009.84
2016-12-20T02:12:54.209Z,1009.89
2016-12-20T02:13:54.222Z,1009.88
2016-12-20T02:14:54.236Z,1009.9
2016-12-20T02:15:54.245Z,1009.8
2016-12-20T02:16:54.256Z,1009.74
2016-12-20T02:17:54.271Z,1009.76
2016-12-20T02:18:54.284Z,1009.75
2016-12-20T02:19:54.297Z,1009.8
2016-12-20T02:20:54.303Z,1009.81
2016-12-20T02:21:54.318Z,1009.82
2016-12-20T02:22:54.329Z,1009.79
2016-12-20T02:23:54.344Z,1009.76
2016-12-20T02:24:54.354Z,1009.71
2016-12-20T02:25:54.366Z,1009.69
2016-12-20T02:26:54.382Z,1009.68
2016-12-20T02:27:54.392Z,1009.65
2016-12-20T02:28:54.406Z,1009.66
2016-12-20T02:29:54.420Z,1009.71
2016-12-20T02:30:54.429Z,1009.69
2016-12-20T02:31:54.442Z,1009.71
2016-12-20T02:32:54.454Z,1009.71
2016-12-20T02:33:54.466Z,1009.7
2016-12-20T02:34:54.477Z,1009.7
2016-12-20T02:35:54.488Z,1009.72
2016-12-20T02:36:54.504Z,1009.69
2016-12-20T02:37:54.516Z,1009.7
2016-12-20T02:38:54.521Z,1009.68
2016-12-20T02:39:54.538Z,1009.68
2016-12-20T02:40:54.552Z,1009.65
2016-12-20T02:41:54.561Z,1009.67
2016-12-20T02:42:54.577Z,1009.68
2016-12-20T02:43:54.584Z,1009.71
2016-12-20T02:44:54.599Z,1009.76
2016-12-20T02:45:54.609Z,1009.78
2016-12-20T02:46:54.625Z,1009.79
2016-12-20T02:47:54.634Z,1009.79
2016-12-20T02:48:54.646Z,1009.78
2016-12-20T02:49:54.660Z,1009.8
2016-12-20T02:50:54.669Z,1009.77
2016-12-20T02:51:54.682Z,1009.74
2016-12-20T02:52:54.696Z,1009.73
2016-12-20T02:53:54.705Z,1009.69
2016-12-20T02:54:54.716Z,1009.75
2016-12-20T02:55:54.730Z,1009.69
2016-12-20T02:56:54.743Z,1009.71
2016-12-20T02:57:54.753Z,1009.68
2016-12-20T02:58:54.764Z,1009.71
2016-12-20T02:59:54.778Z,1009.69
2016-12-20T03:00:54.790Z,1009.68
2016-12-20T03:01:54.801Z,1009.68
2016-12-20T03:02:54.812Z,1009.72
2016-12-20T03:03:54.827Z,1009.74
2016-12-20T03:04:54.835Z,1009.7
2016-12-20T03:05:54.849Z,1009.74
2016-12-20T03:06:54.859Z,1009.69
2016-12-20T03:07:54.874Z,1009.72
2016-12-20T03:08:54.887Z,1009.77
2016-12-20T03:09:54.899Z,1009.76
2016-12-20T03:10:54.907Z,1009.7
2016-12-20T03:11:54.919Z,1009.7
2016-12-20T03:12:54.931Z,1009.7
2016-12-20T03:13:54.946Z,1009.74
2016-12-20T03:14:54.957Z,1009.68
2016-12-20T03:15:54.967Z,1009.69
2016-12-20T03:16:54.980Z,1009.64
2016-12-20T03:17:54.994Z,1009.68
2016-12-20T03:18:55.005Z,1009.61
2016-12-20T03:19:55.017Z,1009.61
2016-12-20T03:20:55.031Z,1009.6
2016-12-20T03:21:55.044Z,1009.57
2016-12-20T03:22:55.054Z,1009.54
2016-12-20T03:23:55.065Z,1009.49
2016-12-20T03:24:55.077Z,1009.47
2016-12-20T03:25:55.089Z,1009.46
2016-12-20T03:26:55.102Z,1009.46
2016-12-20T03:27:55.114Z,1009.4
2016-12-20T03:28:55.124Z,1009.39
2016-12-20T03:29:55.140Z,1009.37
2016-12-20T03:30:55.150Z,1009.39
2016-12-20T03:31:55.160Z,1009.37
2016-12-20T03:32:55.177Z,1009.31
2016-12-20T03:33:55.185Z,1009.3
2016-12-20T03:34:55.194Z,1009.32
2016-12-20T03:35:55.211Z,1009.35
2016-12-20T03:36:55.221Z,1009.29
2016-12-20T03:37:55.237Z,1009.27
2016-12-20T03:38:55.245Z,1009.24
2016-12-20T03:39:55.255Z,1009.26
2016-12-20T03:40:55.268Z,1009.17
2016-12-20T03:41:55.284Z,1009.17
2016-12-20T03:42:55.297Z,1009.19
2016-12-20T03:43:55.308Z,1009.16
2016-12-20T03:44:55.318Z,1009.14
2016-12-20T03:45:55.330Z,1009.11
2016-12-20T03:46:55.346Z,1009.11
2016-12-20T03:47:55.354Z,1009.05
2016-12-20T03:48:55.367Z,1008.99
2016-12-20T03:49:55.377Z,1008.98
2016-12-20T03:50:55.388Z,1009.02
2016-12-20T03:51:55.399Z,1009
2016-12-20T03:52:55.415Z,1008.99
2016-12-20T03:53:55.428Z,1009
2016-12-20T03:54:55.440Z,1008.99
2016-12-20T03:55:55.447Z,1008.99
2016-12-20T03:56:55.462Z,1009
2016-12-20T03:57:55.473Z,1009
2016-12-20T03:58:55.482Z,1008.98
2016-12-20T03:59:55.499Z,1008.98
2016-12-20T04:01:55.521Z,1008.92
2016-12-20T04:02:55.533Z,1008.97
2016-12-20T04:03:55.544Z,1008.96
2016-12-20T04:04:55.556Z,1008.96
2016-12-20T04:05:55.571Z,1008.99
2016-12-20T04:06:55.579Z,1008.98
2016-12-20T04:07:55.593Z,1008.98
2016-12-20T04:08:55.603Z,1008.94
2016-12-20T04:09:55.618Z,1008.95
2016-12-20T04:10:55.627Z,1008.92
2016-12-20T04:11:55.639Z,1008.89
2016-12-20T04:12:55.653Z,1008.88
2016-12-20T04:13:55.659Z,1008.9
2016-12-20T04:14:55.676Z,1008.86
2016-12-20T04:15:55.685Z,1008.85
2016-12-20T04:16:55.698Z,1008.84
2016-12-20T04:17:55.710Z,1008.84
2016-12-20T04:18:55.720Z,1008.83
2016-12-20T04:19:55.735Z,1008.86
2016-12-20T04:20:55.743Z,1008.82
2016-12-20T04:21:55.755Z,1008.79
2016-12-20T04:22:55.769Z,1008.78
2016-12-20T04:23:55.781Z,1008.77
2016-12-20T04:24:55.789Z,1008.8
2016-12-20T04:25:55.807Z,1008.82
2016-12-20T04:26:55.816Z,1008.87
2016-12-20T04:27:55.824Z,1008.8
2016-12-20T04:28:55.841Z,1008.8
2016-12-20T04:29:55.850Z,1008.74
2016-12-20T04:30:55.859Z,1008.74
2016-12-20T04:31:55.876Z,1008.73
2016-12-20T04:32:55.890Z,1008.73
2016-12-20T04:33:55.897Z,1008.72
2016-12-20T04:34:55.912Z,1008.77
2016-12-20T04:35:55.923Z,1008.77
2016-12-20T04:36:55.933Z,1008.75
2016-12-20T04:37:55.943Z,1008.72
2016-12-20T04:38:55.959Z,1008.7
2016-12-20T04:39:55.971Z,1008.7
2016-12-20T04:40:55.978Z,1008.67
2016-12-20T04:41:55.992Z,1008.7
2016-12-20T04:42:56.005Z,1008.72
2016-12-20T04:43:56.016Z,1008.72
2016-12-20T04:44:56.027Z,1008.7
2016-12-20T04:45:56.040Z,1008.74
2016-12-20T04:46:56.054Z,1008.75
2016-12-20T04:47:56.062Z,1008.73
2016-12-20T04:48:56.074Z,1008.72
2016-12-20T04:49:56.088Z,1008.72
2016-12-20T04:50:56.099Z,1008.72
2016-12-20T04:51:56.109Z,1008.76
2016-12-20T04:52:56.125Z,1008.78
2016-12-20T04:53:56.130Z,1008.76
2016-12-20T04:54:56.147Z,1008.75
2016-12-20T04:55:56.160Z,1008.75
2016-12-20T04:56:56.172Z,1008.73
2016-12-20T04:57:56.180Z,1008.71
2016-12-20T04:58:56.196Z,1008.72
2016-12-20T04:59:56.204Z,1008.69
2016-12-20T05:00:56.216Z,1008.68
2016-12-20T05:01:56.228Z,1008.66
2016-12-20T05:02:56.239Z,1008.65
2016-12-20T05:03:56.252Z,1008.61
2016-12-20T05:04:56.262Z,1008.66
2016-12-20T05:05:56.277Z,1008.61
2016-12-20T05:06:56.287Z,1008.63
2016-12-20T05:07:56.301Z,1008.61
2016-12-20T05:08:56.309Z,1008.67
2016-12-20T05:09:56.322Z,1008.65
2016-12-20T05:10:56.332Z,1008.67
2016-12-20T05:11:56.344Z,1008.68
2016-12-20T05:12:56.360Z,1008.68
2016-12-20T05:13:56.369Z,1008.66
2016-12-20T05:14:56.382Z,1008.62
2016-12-20T05:15:56.391Z,1008.64
2016-12-20T05:16:56.408Z,1008.61
2016-12-20T05:17:56.415Z,1008.6
2016-12-20T05:18:56.431Z,1008.53
2016-12-20T05:19:56.446Z,1008.55
2016-12-20T05:20:56.450Z,1008.55
2016-12-20T05:21:56.465Z,1008.58
2016-12-20T05:22:56.478Z,1008.55
2016-12-20T05:23:56.490Z,1008.58
2016-12-20T05:24:56.497Z,1008.59
2016-12-20T05:25:56.514Z,1008.55
2016-12-20T05:26:56.523Z,1008.57
2016-12-20T05:27:56.534Z,1008.55
2016-12-20T05:28:56.550Z,1008.51
2016-12-20T05:29:56.561Z,1008.53
2016-12-20T05:30:56.570Z,1008.53
2016-12-20T05:31:56.581Z,1008.53
2016-12-20T05:32:56.593Z,1008.55
2016-12-20T05:33:56.607Z,1008.54
2016-12-20T05:34:56.618Z,1008.59
2016-12-20T05:35:56.628Z,1008.59
2016-12-20T05:36:56.641Z,1008.6
2016-12-20T05:37:56.652Z,1008.59
2016-12-20T05:38:56.663Z,1008.59
2016-12-20T05:39:56.679Z,1008.55
2016-12-20T05:40:56.692Z,1008.57
2016-12-20T05:41:56.701Z,1008.57
2016-12-20T05:42:56.714Z,1008.49
2016-12-20T05:43:56.728Z,1008.51
2016-12-20T05:44:56.736Z,1008.48
2016-12-20T05:45:56.749Z,1008.49
2016-12-20T05:46:56.759Z,1008.47
2016-12-20T05:47:56.769Z,1008.45
2016-12-20T05:48:56.785Z,1008.45
2016-12-20T05:49:56.796Z,1008.48
2016-12-20T05:50:56.806Z,1008.47
2016-12-20T05:51:56.817Z,1008.48
2016-12-20T05:52:56.832Z,1008.46
2016-12-20T05:53:56.838Z,1008.44
2016-12-20T05:54:56.852Z,1008.39
2016-12-20T05:55:56.867Z,1008.36
2016-12-20T05:56:56.873Z,1008.37
2016-12-20T05:57:56.890Z,1008.38
2016-12-20T05:58:56.899Z,1008.38
2016-12-20T05:59:56.911Z,1008.37
2016-12-20T06:00:56.924Z,1008.39
2016-12-20T06:01:56.934Z,1008.37
2016-12-20T06:02:56.946Z,1008.41
2016-12-20T06:03:56.958Z,1008.38
2016-12-20T06:04:56.970Z,1008.39
2016-12-20T06:05:56.982Z,1008.38
2016-12-20T06:06:56.993Z,1008.36
2016-12-20T06:07:57.007Z,1008.34
2016-12-20T06:08:57.017Z,1008.34
2016-12-20T06:09:57.033Z,1008.26
2016-12-20T06:10:57.043Z,1008.31
2016-12-20T06:11:57.054Z,1008.29
2016-12-20T06:12:57.065Z,1008.28
2016-12-20T06:13:57.074Z,1008.26
2016-12-20T06:14:57.090Z,1008.26
2016-12-20T06:15:57.106Z,1008.26
2016-12-20T06:16:57.112Z,1008.22
2016-12-20T06:17:57.124Z,1008.27
2016-12-20T06:18:57.139Z,1008.3
2016-12-20T06:19:57.150Z,1008.28
2016-12-20T06:20:57.157Z,1008.27
2016-12-20T06:21:57.175Z,1008.25
2016-12-20T06:22:57.186Z,1008.29
2016-12-20T06:23:57.199Z,1008.32
2016-12-20T06:24:57.205Z,1008.31
2016-12-20T06:25:57.219Z,1008.25
2016-12-20T06:26:57.230Z,1008.29
2016-12-20T06:27:57.241Z,1008.24
2016-12-20T06:28:57.256Z,1008.29
2016-12-20T06:29:57.268Z,1008.22
2016-12-20T06:30:57.278Z,1008.2
2016-12-20T06:31:57.290Z,1008.23
2016-12-20T06:32:57.304Z,1008.18
2016-12-20T06:33:57.311Z,1008.17
2016-12-20T06:34:57.327Z,1008.19
2016-12-20T06:35:57.338Z,1008.16
2016-12-20T06:36:57.346Z,1008.13
2016-12-20T06:37:57.360Z,1008.14
2016-12-20T06:38:57.372Z,1008.16
2016-12-20T06:39:57.383Z,1008.15
2016-12-20T06:40:57.396Z,1008.18
2016-12-20T06:41:57.408Z,1008.12
2016-12-20T06:42:57.421Z,1008.12
2016-12-20T06:43:57.433Z,1008.15
2016-12-20T06:44:57.441Z,1008.19
2016-12-20T06:45:57.456Z,1008.2
2016-12-20T06:46:57.469Z,1008.19
2016-12-20T06:47:57.476Z,1008.18
2016-12-20T06:48:57.491Z,1008.21
2016-12-20T06:49:57.502Z,1008.19
2016-12-20T06:50:57.516Z,1008.2
2016-12-20T06:51:57.523Z,1008.16
2016-12-20T06:52:57.554Z,1008.16
2016-12-20T06:53:57.546Z,1008.2
2016-12-20T06:54:57.562Z,1008.16
2016-12-20T06:55:57.573Z,1008.19
2016-12-20T06:56:57.585Z,1008.22
2016-12-20T06:57:57.593Z,1008.15
2016-12-20T06:58:57.607Z,1008.19
2016-12-20T06:59:57.615Z,1008.11
2016-12-20T07:00:57.629Z,1008.15
2016-12-20T07:01:57.643Z,1008.15
2016-12-20T07:02:57.654Z,1008.1
2016-12-20T07:03:57.665Z,1008.1
2016-12-20T07:04:57.677Z,1008.09
2016-12-20T07:05:57.686Z,1008.06
2016-12-20T07:06:57.699Z,1008.11
2016-12-20T07:07:57.713Z,1008.09
2016-12-20T07:08:57.721Z,1008.07
2016-12-20T07:09:57.738Z,1008.02
2016-12-20T07:10:57.750Z,1008.02
2016-12-20T07:11:57.757Z,1008.04
2016-12-20T07:12:57.773Z,1008.05
2016-12-20T07:13:57.782Z,1008.02
2016-12-20T07:14:57.790Z,1008.07
2016-12-20T07:15:57.806Z,1008.05
2016-12-20T07:16:57.820Z,1008.05
2016-12-20T07:17:57.828Z,1008.07
2016-12-20T07:18:57.841Z,1008.05
2016-12-20T07:19:57.853Z,1008.1
2016-12-20T07:20:57.863Z,1008.09
2016-12-20T07:21:57.876Z,1008.13
2016-12-20T07:22:57.889Z,1008.07
2016-12-20T07:23:57.900Z,1008.08
2016-12-20T07:24:57.912Z,1008.11
2016-12-20T07:25:57.923Z,1008.13
2016-12-20T07:26:57.936Z,1008.11
2016-12-20T07:27:57.946Z,1008.1
2016-12-20T07:28:57.960Z,1008.14
2016-12-20T07:29:57.970Z,1008.15
2016-12-20T07:30:57.981Z,1008.13
2016-12-20T07:31:57.994Z,1008.11
2016-12-20T07:32:58.007Z,1008.14
2016-12-20T07:33:58.014Z,1008.1
2016-12-20T07:34:58.028Z,1008.11
2016-12-20T07:35:58.040Z,1008.1
2016-12-20T07:36:58.051Z,1008.06
2016-12-20T07:37:58.063Z,1008.13
2016-12-20T07:38:58.075Z,1008.14
2016-12-20T07:39:58.086Z,1008.2
2016-12-20T07:40:58.095Z,1008.17
2016-12-20T07:41:58.110Z,1008.19
2016-12-20T07:42:58.116Z,1008.21
2016-12-20T07:43:58.132Z,1008.19
2016-12-20T07:44:58.145Z,1008.16
2016-12-20T07:45:58.154Z,1008.17
2016-12-20T07:46:58.166Z,1008.16
2016-12-20T07:47:58.180Z,1008.18
2016-12-20T07:48:58.189Z,1008.18
2016-12-20T07:49:58.199Z,1008.2
2016-12-20T07:50:58.213Z,1008.23
2016-12-20T07:51:58.224Z,1008.21
2016-12-20T07:52:58.237Z,1008.22
2016-12-20T07:53:58.248Z,1008.23
2016-12-20T07:54:58.264Z,1008.24
2016-12-20T07:55:58.273Z,1008.23
2016-12-20T07:56:58.284Z,1008.21
2016-12-20T07:57:58.298Z,1008.22
2016-12-20T07:58:58.306Z,1008.21
2016-12-20T07:59:58.321Z,1008.17
2016-12-20T08:00:58.330Z,1008.2
2016-12-20T08:01:58.343Z,1008.24
2016-12-20T08:02:58.352Z,1008.16
2016-12-20T08:03:58.364Z,1008.22
2016-12-20T08:04:58.376Z,1008.23
2016-12-20T08:05:58.390Z,1008.25
2016-12-20T08:06:58.401Z,1008.25
2016-12-20T08:07:58.410Z,1008.26
2016-12-20T08:08:58.421Z,1008.28
2016-12-20T08:09:58.437Z,1008.27
2016-12-20T08:10:58.450Z,1008.28
2016-12-20T08:11:58.455Z,1008.3
2016-12-20T08:12:58.472Z,1008.32
2016-12-20T08:13:58.480Z,1008.33
2016-12-20T08:14:58.494Z,1008.32
2016-12-20T08:15:58.511Z,1008.31
2016-12-20T08:16:58.518Z,1008.29
2016-12-20T08:17:58.533Z,1008.31
2016-12-20T08:18:58.542Z,1008.3
2016-12-20T08:19:58.552Z,1008.3
2016-12-20T08:20:58.568Z,1008.29
2016-12-20T08:21:58.575Z,1008.28
2016-12-20T08:22:58.591Z,1008.29
2016-12-20T08:23:58.602Z,1008.31
2016-12-20T08:24:58.614Z,1008.29
2016-12-20T08:25:58.623Z,1008.32
2016-12-20T08:26:58.640Z,1008.31
2016-12-20T08:27:58.655Z,1008.27
2016-12-20T08:28:58.662Z,1008.27
2016-12-20T08:29:58.674Z,1008.3
2016-12-20T08:30:58.685Z,1008.29
2016-12-20T08:31:58.695Z,1008.3
2016-12-20T08:32:58.711Z,1008.22
2016-12-20T08:33:58.720Z,1008.24
2016-12-20T08:34:58.731Z,1008.24
2016-12-20T08:35:58.745Z,1008.28
2016-12-20T08:36:58.754Z,1008.29
2016-12-20T08:37:58.766Z,1008.27
2016-12-20T08:38:58.781Z,1008.24
2016-12-20T08:39:58.792Z,1008.24
2016-12-20T08:40:58.800Z,1008.3
2016-12-20T08:41:58.817Z,1008.28
2016-12-20T08:42:58.824Z,1008.27
2016-12-20T08:43:58.838Z,1008.33
2016-12-20T08:44:58.849Z,1008.34
2016-12-20T08:45:58.857Z,1008.35
2016-12-20T08:46:58.870Z,1008.39
2016-12-20T08:47:58.887Z,1008.39
2016-12-20T08:48:58.896Z,1008.39
2016-12-20T08:49:58.905Z,1008.36
2016-12-20T08:50:58.926Z,1008.37
2016-12-20T08:51:58.930Z,1008.37
2016-12-20T08:52:58.945Z,1008.41
2016-12-20T08:53:58.956Z,1008.47
2016-12-20T08:54:58.966Z,1008.41
2016-12-20T08:55:58.979Z,1008.42
2016-12-20T08:56:58.990Z,1008.41
2016-12-20T08:57:59.001Z,1008.43
2016-12-20T08:58:59.013Z,1008.43
2016-12-20T08:59:59.028Z,1008.45
2016-12-20T09:00:59.035Z,1008.39
2016-12-20T09:01:59.048Z,1008.41
2016-12-20T09:02:59.060Z,1008.37
2016-12-20T09:03:59.072Z,1008.38
2016-12-20T09:04:59.082Z,1008.36
2016-12-20T09:05:59.095Z,1008.37
2016-12-20T09:06:59.108Z,1008.46
2016-12-20T09:07:59.121Z,1008.45
2016-12-20T09:08:59.133Z,1008.5
2016-12-20T09:09:59.144Z,1008.44
2016-12-20T09:10:59.156Z,1008.46
2016-12-20T09:11:59.168Z,1008.56
2016-12-20T09:12:59.180Z,1008.53
2016-12-20T09:13:59.194Z,1008.5
2016-12-20T09:14:59.203Z,1008.54
2016-12-20T09:15:59.218Z,1008.54
2016-12-20T09:16:59.226Z,1008.55
2016-12-20T09:17:59.239Z,1008.52
2016-12-20T09:18:59.253Z,1008.5
2016-12-20T09:19:59.265Z,1008.48
2016-12-20T09:20:59.271Z,1008.5
2016-12-20T09:21:59.288Z,1008.55
2016-12-20T09:22:59.297Z,1008.54
2016-12-20T09:23:59.310Z,1008.51
2016-12-20T09:24:59.327Z,1008.47
2016-12-20T09:25:59.336Z,1008.43
2016-12-20T09:26:59.350Z,1008.48
2016-12-20T09:27:59.362Z,1008.43
2016-12-20T09:28:59.371Z,1008.46
2016-12-20T09:29:59.384Z,1008.43
2016-12-20T09:30:59.401Z,1008.46
2016-12-20T09:31:59.408Z,1008.41
2016-12-20T09:32:59.453Z,1008.39
2016-12-20T09:33:59.434Z,1008.41
2016-12-20T09:34:59.448Z,1008.42
2016-12-20T09:35:59.459Z,1008.46
2016-12-20T09:36:59.471Z,1008.46
2016-12-20T09:37:59.481Z,1008.47
2016-12-20T09:38:59.496Z,1008.43
2016-12-20T09:39:59.508Z,1008.43
2016-12-20T09:40:59.524Z,1008.49
2016-12-20T09:41:59.538Z,1008.48
2016-12-20T09:42:59.543Z,1008.48
2016-12-20T09:43:59.558Z,1008.49
2016-12-20T09:44:59.569Z,1008.48
2016-12-20T09:45:59.584Z,1008.46
2016-12-20T09:46:59.591Z,1008.42
2016-12-20T09:47:59.610Z,1008.4
2016-12-20T09:48:59.619Z,1008.45
2016-12-20T09:49:59.633Z,1008.5
2016-12-20T09:50:59.644Z,1008.47
2016-12-20T09:51:59.656Z,1008.43
2016-12-20T09:52:59.666Z,1008.48
2016-12-20T09:53:59.681Z,1008.53
2016-12-20T09:54:59.745Z,1008.5
2016-12-20T09:55:59.706Z,1008.49
2016-12-20T09:56:59.726Z,1008.46
2016-12-20T09:57:59.726Z,1008.41
2016-12-20T09:58:59.739Z,1008.36
2016-12-20T09:59:59.755Z,1008.37
2016-12-20T10:00:59.765Z,1008.34
2016-12-20T10:01:59.778Z,1008.29
2016-12-20T10:02:59.790Z,1008.3
2016-12-20T10:03:59.806Z,1008.32
2016-12-20T10:04:59.817Z,1008.34
2016-12-20T10:05:59.829Z,1008.34
2016-12-20T10:06:59.842Z,1008.35
2016-12-20T10:07:59.852Z,1008.32
2016-12-20T10:08:59.868Z,1008.32
2016-12-20T10:09:59.877Z,1008.25
2016-12-20T10:10:59.891Z,1008.27
2016-12-20T10:11:59.904Z,1008.28
2016-12-20T10:12:59.916Z,1008.23
2016-12-20T10:13:59.928Z,1008.2
2016-12-20T10:14:59.942Z,1008.2
2016-12-20T10:15:59.949Z,1008.19
2016-12-20T10:16:59.965Z,1008.13
2016-12-20T10:17:59.974Z,1008.12
2016-12-20T10:18:59.987Z,1008.12
2016-12-20T10:20:00.001Z,1008.12
2016-12-20T10:21:00.014Z,1008.13
2016-12-20T10:22:00.028Z,1008.09
2016-12-20T10:23:00.035Z,1008.11
2016-12-20T10:24:00.051Z,1008.05
2016-12-20T10:25:00.065Z,1008.05
2016-12-20T10:26:00.077Z,1008.02
2016-12-20T10:27:00.087Z,1008.03
2016-12-20T10:28:00.103Z,1007.98
2016-12-20T10:29:00.117Z,1008.01
2016-12-20T10:30:00.125Z,1007.95
2016-12-20T10:31:00.137Z,1007.91
2016-12-20T10:32:00.152Z,1007.91
2016-12-20T10:33:00.165Z,1007.91
2016-12-20T10:34:00.176Z,1007.85
2016-12-20T10:35:00.188Z,1007.82
2016-12-20T10:36:00.199Z,1007.8
2016-12-20T10:37:00.215Z,1007.77
2016-12-20T10:38:00.225Z,1007.82
2016-12-20T10:39:00.238Z,1007.8
2016-12-20T10:40:00.250Z,1007.85
2016-12-20T10:41:00.263Z,1007.86
2016-12-20T10:42:00.275Z,1007.85
2016-12-20T10:43:00.286Z,1007.86
2016-12-20T10:44:00.301Z,1007.8
2016-12-20T10:45:00.311Z,1007.76
2016-12-20T10:46:00.325Z,1007.76
2016-12-20T10:47:00.341Z,1007.77
2016-12-20T10:48:00.350Z,1007.72
2016-12-20T10:49:00.361Z,1007.79
2016-12-20T10:50:00.373Z,1007.82
2016-12-20T10:51:00.390Z,1007.86
2016-12-20T10:52:00.403Z,1007.84
2016-12-20T10:53:00.414Z,1007.79
2016-12-20T10:54:00.425Z,1007.75
2016-12-20T10:55:00.441Z,1007.81
2016-12-20T10:56:00.454Z,1007.68
2016-12-20T10:57:00.467Z,1007.59
2016-12-20T10:58:00.479Z,1007.63
2016-12-20T10:59:00.492Z,1007.54
2016-12-20T11:00:00.503Z,1007.57
2016-12-20T11:01:00.518Z,1007.52
2016-12-20T11:02:00.529Z,1007.49
2016-12-20T11:03:00.542Z,1007.52
2016-12-20T11:04:00.554Z,1007.5
2016-12-20T11:05:00.565Z,1007.54
2016-12-20T11:06:00.577Z,1007.53
2016-12-20T11:07:00.592Z,1007.46
2016-12-20T11:08:00.602Z,1007.48
2016-12-20T11:09:00.616Z,1007.39
2016-12-20T11:10:00.630Z,1007.4
2016-12-20T11:11:00.647Z,1007.38
2016-12-20T11:12:00.660Z,1007.37
2016-12-20T11:13:00.669Z,1007.39
2016-12-20T11:14:00.683Z,1007.38
2016-12-20T11:15:00.694Z,1007.43
2016-12-20T11:16:00.707Z,1007.41
2016-12-20T11:17:00.724Z,1007.44
2016-12-20T11:18:00.735Z,1007.42
2016-12-20T11:19:00.749Z,1007.43
2016-12-20T11:20:00.759Z,1007.37
2016-12-20T11:21:00.771Z,1007.34
2016-12-20T11:22:00.815Z,1007.32
2016-12-20T11:23:00.799Z,1007.29
2016-12-20T11:24:00.810Z,1007.31
2016-12-20T11:25:00.823Z,1007.23
2016-12-20T11:26:00.835Z,1007.27
2016-12-20T11:27:00.846Z,1007.27
2016-12-20T11:28:00.864Z,1007.26
2016-12-20T11:29:00.877Z,1007.26
2016-12-20T11:30:00.888Z,1007.27
2016-12-20T11:31:00.901Z,1007.23
2016-12-20T11:32:00.914Z,1007.23
2016-12-20T11:33:00.924Z,1007.19
2016-12-20T11:34:00.936Z,1007.14
2016-12-20T11:35:00.952Z,1007.1
2016-12-20T11:36:00.966Z,1007.08
2016-12-20T11:37:00.976Z,1007.1
2016-12-20T11:38:00.991Z,1007.06
2016-12-20T11:39:01.000Z,1007.06
2016-12-20T11:40:01.014Z,1006.98
2016-12-20T11:41:01.029Z,1007.01
2016-12-20T11:42:01.040Z,1006.99
2016-12-20T11:43:01.052Z,1006.97
2016-12-20T11:44:01.068Z,1006.93
2016-12-20T11:45:01.077Z,1006.91
2016-12-20T11:46:01.092Z,1006.88
2016-12-20T11:47:01.102Z,1006.84
2016-12-20T11:48:01.114Z,1006.9
2016-12-20T11:49:01.131Z,1006.92
2016-12-20T11:50:01.146Z,1006.94
2016-12-20T11:51:01.152Z,1006.94
2016-12-20T11:52:01.167Z,1006.97
2016-12-20T11:53:01.181Z,1006.91
2016-12-20T11:54:01.190Z,1006.95
2016-12-20T11:55:01.205Z,1006.96
2016-12-20T11:56:01.219Z,1006.86
2016-12-20T11:57:01.229Z,1006.83
2016-12-20T11:58:01.243Z,1006.86
2016-12-20T11:59:01.255Z,1006.8
2016-12-20T12:00:01.269Z,1006.8
2016-12-20T12:01:01.284Z,1006.84
2016-12-20T12:02:01.295Z,1006.85
2016-12-20T12:03:01.307Z,1006.83
2016-12-20T12:04:01.322Z,1006.85
2016-12-20T12:05:01.336Z,1006.92
2016-12-20T12:06:01.348Z,1006.83
2016-12-20T12:07:01.359Z,1006.82
2016-12-20T12:08:01.371Z,1006.89
2016-12-20T12:09:01.384Z,1006.88
2016-12-20T12:10:01.399Z,1006.83